sensor_id;sensor_type;location;lat;lon;timestamp;P1;durP1;ratioP1;P2;durP2;ratioP2
82777;SDS011;72510;45.128;20.734;2023-08-31T06:54:32;11.45;;;7.47;;
82777;SDS011;72510;45.128;20.734;2023-08-31T07:04:32;11.73;;;7.37;;
82777;SDS011;72510;45.128;20.734;2023-08-31T07:14:33;9.43;;;6.30;;
82777;SDS011;72510;45.128;20.734;2023-08-31T07:24:33;10.73;;;7.47;;
82777;SDS011;72510;45.128;20.734;2023-08-31T07:44:34;8.07;;;6.88;;
82777;SDS011;72510;45.128;20.734;2023-08-31T07:54:35;11.20;;;7.93;;
82777;SDS011;72510;45.128;20.734;2023-08-31T08:04:41;8.80;;;6.70;;
82777;SDS011;72510;45.128;20.734;2023-08-31T08:14:53;8.13;;;6.70;;
82777;SDS011;72510;45.128;20.734;2023-08-31T08:35:29;8.57;;;6.80;;
82777;SDS011;72510;45.128;20.734;2023-08-31T08:45:36;8.18;;;6.97;;
82777;SDS011;72510;45.128;20.734;2023-08-31T08:55:38;5.72;;;4.72;;
82777;SDS011;72510;45.128;20.734;2023-08-31T09:05:39;5.35;;;4.82;;
82777;SDS011;72510;45.128;20.734;2023-08-31T09:15:44;5.63;;;5.13;;
82777;SDS011;72510;45.128;20.734;2023-08-31T09:25:46;6.47;;;5.32;;
82777;SDS011;72510;45.128;20.734;2023-08-31T09:45:57;4.50;;;4.10;;
82777;SDS011;72510;45.128;20.734;2023-08-31T09:55:59;4.25;;;3.85;;
82777;SDS011;72510;45.128;20.734;2023-08-31T10:06:00;3.90;;;3.47;;
82777;SDS011;72510;45.128;20.734;2023-08-31T10:16:01;3.90;;;3.60;;
82777;SDS011;72510;45.128;20.734;2023-08-31T10:26:04;2.80;;;2.60;;
82777;SDS011;72510;45.128;20.734;2023-08-31T10:36:08;3.20;;;2.90;;
82777;SDS011;72510;45.128;20.734;2023-08-31T10:46:16;3.40;;;2.92;;
82777;SDS011;72510;45.128;20.734;2023-08-31T10:56:19;3.78;;;3.33;;
82777;SDS011;72510;45.128;20.734;2023-08-31T11:06:20;3.33;;;3.05;;
82777;SDS011;72510;45.128;20.734;2023-08-31T11:16:20;3.13;;;2.78;;
82777;SDS011;72510;45.128;20.734;2023-08-31T11:26:21;3.58;;;3.05;;
82777;SDS011;72510;45.128;20.734;2023-08-31T11:36:21;4.80;;;2.92;;
82777;SDS011;72510;45.128;20.734;2023-08-31T11:46:22;2.47;;;2.28;;
82777;SDS011;72510;45.128;20.734;2023-08-31T11:56:23;3.40;;;3.10;;
82777;SDS011;72510;45.128;20.734;2023-08-31T12:06:23;2.35;;;2.15;;
82777;SDS011;72510;45.128;20.734;2023-08-31T12:16:24;2.43;;;2.23;;
82777;SDS011;72510;45.128;20.734;2023-08-31T12:26:25;2.78;;;2.22;;
82777;SDS011;72510;45.128;20.734;2023-08-31T12:36:26;2.60;;;2.40;;
82777;SDS011;72510;45.128;20.734;2023-08-31T12:46:27;3.73;;;2.43;;
82777;SDS011;72510;45.128;20.734;2023-08-31T12:56:29;3.03;;;2.80;;
82777;SDS011;72510;45.128;20.734;2023-08-31T13:06:29;2.72;;;2.33;;
82777;SDS011;72510;45.128;20.734;2023-08-31T13:16:31;2.58;;;2.28;;
82777;SDS011;72510;45.128;20.734;2023-08-31T13:26:34;2.03;;;1.85;;
82777;SDS011;72510;45.128;20.734;2023-08-31T13:36:40;3.17;;;2.42;;
82777;SDS011;72510;45.128;20.734;2023-08-31T13:46:41;2.20;;;2.00;;
82777;SDS011;72510;45.128;20.734;2023-08-31T13:56:43;2.40;;;2.20;;
82777;SDS011;72510;45.128;20.734;2023-08-31T14:06:43;2.40;;;2.20;;
82777;SDS011;72510;45.128;20.734;2023-08-31T14:16:45;2.72;;;2.53;;
82777;SDS011;72510;45.128;20.734;2023-08-31T14:26:45;2.75;;;2.60;;
82777;SDS011;72510;45.128;20.734;2023-08-31T14:36:46;3.23;;;2.93;;
82777;SDS011;72510;45.128;20.734;2023-08-31T14:47:04;4.15;;;3.75;;
82777;SDS011;72510;45.128;20.734;2023-08-31T14:57:08;4.63;;;4.22;;
82777;SDS011;72510;45.128;20.734;2023-08-31T15:07:17;8.30;;;4.88;;
82777;SDS011;72510;45.128;20.734;2023-08-31T15:17:29;7.75;;;5.35;;
82777;SDS011;72510;45.128;20.734;2023-08-31T15:38:20;7.47;;;6.78;;
82777;SDS011;72510;45.128;20.734;2023-08-31T15:48:28;7.53;;;6.85;;
82777;SDS011;72510;45.128;20.734;2023-08-31T15:58:30;7.80;;;7.00;;
82777;SDS011;72510;45.128;20.734;2023-08-31T16:08:30;7.55;;;6.85;;
82777;SDS011;72510;45.128;20.734;2023-08-31T16:18:31;11.23;;;6.78;;
82777;SDS011;72510;45.128;20.734;2023-08-31T16:28:32;6.15;;;5.55;;
82777;SDS011;72510;45.128;20.734;2023-08-31T16:38:33;6.07;;;4.83;;
82777;SDS011;72510;45.128;20.734;2023-08-31T16:48:33;5.47;;;3.28;;
82777;SDS011;72510;45.128;20.734;2023-08-31T16:58:34;3.47;;;3.10;;
82777;SDS011;72510;45.128;20.734;2023-08-31T17:08:34;5.70;;;3.60;;
82777;SDS011;72510;45.128;20.734;2023-08-31T17:18:35;4.30;;;3.90;;
82777;SDS011;72510;45.128;20.734;2023-08-31T17:28:35;7.67;;;4.13;;
82777;SDS011;72510;45.128;20.734;2023-08-31T17:38:36;5.55;;;3.72;;
82777;SDS011;72510;45.128;20.734;2023-08-31T17:48:37;6.80;;;3.70;;
82777;SDS011;72510;45.128;20.734;2023-08-31T17:58:37;4.70;;;3.25;;
82777;SDS011;72510;45.128;20.734;2023-08-31T18:08:41;3.67;;;3.25;;
82777;SDS011;72510;45.128;20.734;2023-08-31T18:18:42;3.93;;;2.90;;
82777;SDS011;72510;45.128;20.734;2023-08-31T18:28:48;4.38;;;3.63;;
82777;SDS011;72510;45.128;20.734;2023-08-31T18:38:49;6.13;;;3.80;;
82777;SDS011;72510;45.128;20.734;2023-08-31T18:48:49;7.13;;;4.07;;
82777;SDS011;72510;45.128;20.734;2023-08-31T19:08:50;3.70;;;3.40;;
82777;SDS011;72510;45.128;20.734;2023-08-31T19:18:52;3.55;;;3.00;;
82777;SDS011;72510;45.128;20.734;2023-08-31T19:28:53;3.67;;;3.17;;
82777;SDS011;72510;45.128;20.734;2023-08-31T19:38:54;3.40;;;3.10;;
82777;SDS011;72510;45.128;20.734;2023-08-31T19:48:55;3.70;;;3.40;;
82777;SDS011;72510;45.128;20.734;2023-08-31T19:58:56;4.30;;;3.65;;
82777;SDS011;72510;45.128;20.734;2023-08-31T20:08:56;3.67;;;3.20;;
82777;SDS011;72510;45.128;20.734;2023-08-31T20:18:57;5.13;;;3.58;;
82777;SDS011;72510;45.128;20.734;2023-08-31T20:28:57;3.70;;;3.30;;
82777;SDS011;72510;45.128;20.734;2023-08-31T20:38:58;4.72;;;3.97;;
82777;SDS011;72510;45.128;20.734;2023-08-31T20:48:59;4.47;;;3.93;;
82777;SDS011;72510;45.128;20.734;2023-08-31T20:58:59;4.97;;;4.10;;
82777;SDS011;72510;45.128;20.734;2023-08-31T21:09:00;4.77;;;4.23;;
82777;SDS011;72510;45.128;20.734;2023-08-31T21:19:00;4.78;;;3.88;;
82777;SDS011;72510;45.128;20.734;2023-08-31T21:29:01;3.92;;;3.47;;
82777;SDS011;72510;45.128;20.734;2023-08-31T21:39:01;4.28;;;3.58;;
82777;SDS011;72510;45.128;20.734;2023-08-31T21:49:02;4.22;;;3.83;;
82777;SDS011;72510;45.128;20.734;2023-08-31T21:59:02;4.60;;;4.10;;
82777;SDS011;72510;45.128;20.734;2023-08-31T22:09:03;4.20;;;3.80;;
82777;SDS011;72510;45.128;20.734;2023-08-31T22:19:03;5.67;;;4.60;;
82777;SDS011;72510;45.128;20.734;2023-08-31T22:29:04;4.90;;;4.32;;
82777;SDS011;72510;45.128;20.734;2023-08-31T22:39:08;4.65;;;4.18;;
82777;SDS011;72510;45.128;20.734;2023-08-31T22:49:08;5.30;;;4.30;;
82777;SDS011;72510;45.128;20.734;2023-08-31T22:59:08;4.55;;;3.97;;
82777;SDS011;72510;45.128;20.734;2023-08-31T23:09:09;5.80;;;4.47;;
82777;SDS011;72510;45.128;20.734;2023-08-31T23:19:09;5.60;;;4.55;;
82777;SDS011;72510;45.128;20.734;2023-08-31T23:29:10;6.97;;;4.90;;
82777;SDS011;72510;45.128;20.734;2023-08-31T23:39:11;7.75;;;4.72;;
82777;SDS011;72510;45.128;20.734;2023-08-31T23:49:11;5.87;;;5.03;;
82777;SDS011;72510;45.128;20.734;2023-08-31T23:59:12;6.20;;;4.75;;
